Varna, Bulgaria
Current Conditions -  °F | °C
As of 7:30 PM on Friday 24 Oct 2014 (Local Time) from LBWN Reporting Station
Broken Clouds Broken Clouds  
Wind Chill:   Ceiling: 600
Heat Index:   Visibility: 6mi
Dew Point:   Wind: 18mph
Humidity: 93%   Direction: 360°N
Pressure: 30.03"   Gusts: NA
Location:  43.21°N, 27.9°E
Report Text: LBWN 241630Z 36008MPS 9999 BKN006 BKN025 07/06 Q1017 NOSIG
Loading
Personal Weather Stations






























Interactive Weather Map
Tropical Storm Tracking
New forecast layout! Learn more

10-Day Weather Forecast

Advertisements
Track Severe Weather on mobile